Chattanooga Airport (CHA)

 

Airport Diagram
Current Weather/Forecast ( Conditions)
METAR KCHA 020853Z AUTO A3009 RMK AO2 SLPNO 52003 PWINO FZRANO $
TAF KCHA 020529Z 0206/0306 36007KT P6SM SCT250 FM030100 01003KT P6SM FEW250

All Charts
General
Chart Name Download
AIRPORT DIAGRAM
TAKEOFF MINIMUMS
ALTERNATE MINIMUMS

Departures
Chart Name Download
CHATTANOOGA SIX

Approaches
Chart Name Download
ILS OR LOC RWY 02
ILS OR LOC RWY 20
ILS RWY 20 (CAT II)
RNAV (GPS) RWY 02
RNAV (GPS) RWY 15
RNAV (GPS) RWY 20
RNAV (GPS) RWY 33
VOR RWY 33


Inbound Traffic (Arrivals)

No inbound traffic.


Outbound Traffic (Departures)

No outbound traffic.